1PS4 weather

Sankey Airport
Osceola Mills, Pennsylvania, United States

Public forecast

Using degrees Fahrenheit for public forecast. Weather courtesy of forecast.io.

Closest aviation weather report (METAR) to Sankey Airport

Closest report is Clearfield Lawrence Airport, 13.3 nm (24.6 km) NNW. Retrieved 2020/01/27 19:54 UTC (56 minutes ago):

KFIG 271954Z AUTO 28009G19KT 10SM FEW018 BKN041 OVC060 01/M03 A2972 RMK AO2 SNE43 SLP080 P0000 T00111028

Closest aviation forecast (TAF) to Sankey Airport

Closest forecast is University Park Airport, 18.6 nm (34.5 km) E. Retrieved 2020/01/27 18:22 UTC (2 hours ago):

TAF KUNV 271720Z 2718/2818 28010KT P6SM VCSH OVC025 FM272300 29010KT P6SM VCSH OVC025 FM281400 30011G17KT P6SM OVC030